Latest Weather Observations for Grafton AgRS

IDN60801

Issued at 4:35 pm EST Wednesday 1 October 2014 (issued every 30 minutes, with the page automatically refreshed every 10 minutes)

About weather observations | Map of weather stations | Latest weather observations for NSW | Other Formats
Station Details ID: 058077 Name: GRAFTON RESEARCH STN Lat: -29.62 Lon: 152.96 Height: 25.0 m
Data from the previous 72 hours. | See also: Recent months for locations in New South Wales
Date/Time
EST
Temp
°C
App
Temp
°C
Dew
Point
Rel
Hum
%
Delta-T
°C
Wind Press
QNH
hPa
Press
MSL
hPa
Rain
since 9 am
mm
Dir
 
Spd
km/h
Gust
km/h
Spd
kts
Gust
kts
01/04:30pm 19.6 13.3 8.9 50 5.6 SE 32 44 17 24 - - 0.0
01/04:00pm 20.1 13.9 11.3 57 4.8 SE 35 50 19 27 - - 0.0
01/03:30pm 20.7 14.9 11.6 56 5.1 SE 33 44 18 24 - - 0.0
01/03:00pm 21.6 16.2 12.7 57 5.1 SE 33 43 18 23 - - 0.0
01/02:30pm 22.3 17.4 15.2 64 4.2 SE 35 48 19 26 - - 0.0
01/02:00pm 22.8 17.7 14.9 61 4.7 SE 35 48 19 26 - - 0.0
01/01:30pm 23.5 18.0 15.8 62 4.7 SE 39 54 21 29 - - 0.0
01/01:00pm 24.4 19.0 16.9 63 4.6 SE 41 56 22 30 - - 0.0
01/12:30pm 26.9 22.3 13.6 44 7.9 SE 30 50 16 27 - - 0.0
01/12:29pm 28.1 23.8 13.2 39 8.8 SE 28 50 15 27 - - 0.0
01/12:00pm 31.7 30.4 9.8 26 12.4 W 7 15 4 8 - - 0.0
01/11:30am 31.1 28.4 8.8 25 12.4 WNW 13 20 7 11 - - 0.0
01/11:00am 30.3 28.2 8.1 25 12.2 WNW 9 19 5 10 - - 0.0
01/10:30am 30.1 28.1 11.6 32 10.7 W 13 20 7 11 - - 0.0
01/10:00am 29.1 26.9 12.1 35 9.9 W 15 24 8 13 - - 0.0
01/09:30am 27.2 28.2 17.7 56 6.0 W 9 13 5 7 - - 0.0
01/09:00am 25.0 25.5 15.6 56 5.7 WNW 7 11 4 6 - - 0.0
01/08:30am 22.7 24.0 17.2 71 3.4 SSW 6 7 3 4 - - 0.0
01/08:00am 20.7 22.5 17.5 82 2.0 WNW 4 7 2 4 - - 0.0
01/07:30am 18.6 20.2 16.8 89 1.1 NNW 4 11 2 6 - - 0.0
01/07:00am 17.0 18.9 16.7 98 0.2 N 2 9 1 5 - - 0.0
01/06:30am 15.0 14.1 14.8 99 0.1 N 13 15 7 8 - - 0.0
01/06:00am 14.2 14.2 14.2 100 0.0 N 7 11 4 6 - - 0.0
01/05:30am 13.5 12.8 13.3 99 0.1 NW 9 11 5 6 - - 0.0
01/05:00am 12.9 13.7 12.6 98 0.2 CALM 0 0 0 0 - - 0.0
01/04:30am 13.3 14.2 13.0 98 0.2 CALM 0 4 0 2 - - 0.0
01/04:00am 14.1 15.0 13.9 99 0.1 WSW 2 6 1 3 - - 0.0
01/03:30am 14.8 16.2 14.3 97 0.3 CALM 0 0 0 0 - - 0.0
01/03:00am 15.2 16.8 14.9 98 0.2 CALM 0 0 0 0 - - 0.0
01/02:30am 15.4 15.9 15.1 98 0.2 NNE 6 9 3 5 - - 0.0
01/02:00am 15.1 16.7 14.8 98 0.2 CALM 0 0 0 0 - - 0.0
01/01:30am 15.7 17.4 15.2 97 0.3 CALM 0 0 0 0 - - 0.0
01/01:00am 16.0 17.0 15.4 96 0.3 NNW 4 6 2 3 - - 0.0
01/12:30am 16.3 17.4 15.7 96 0.4 WNW 4 7 2 4 - - 0.0
01/12:00am 16.4 17.4 15.3 93 0.6 N 4 7 2 4 - - 0.0
 
Date/Time
EST
Temp
°C
App
Temp
°C
Dew
Point
Rel
Hum
%
Delta-T
°C
Wind Press
QNH
hPa
Press
MSL
hPa
Rain
since 9 am
mm
Dir
 
Spd
km/h
Gust
km/h
Spd
kts
Gust
kts
30/11:30pm 16.9 17.6 16.1 95 0.5 NNE 7 7 4 4 - - 0.0
30/11:00pm 17.2 18.0 16.4 95 0.5 N 7 7 4 4 - - 0.0
30/10:30pm 17.3 19.4 16.3 94 0.6 CALM 0 4 0 2 - - 0.0
30/10:00pm 17.7 18.7 16.4 92 0.8 NE 6 7 3 4 - - 0.0
30/09:30pm 17.7 18.7 16.4 92 0.8 E 6 7 3 4 - - 0.0
30/09:00pm 18.1 20.2 16.3 89 1.1 CALM 0 6 0 3 - - 0.0
30/08:30pm 18.4 19.4 16.4 88 1.2 E 6 7 3 4 - - 0.0
30/08:00pm 18.8 19.7 16.6 87 1.3 E 7 11 4 6 - - 0.0
30/07:30pm 19.2 19.6 16.4 84 1.7 ESE 9 13 5 7 - - 0.0
30/07:00pm 20.9 21.9 16.3 75 2.8 ENE 6 9 3 5 - - 0.0
30/06:30pm 20.9 21.5 15.9 73 3.0 ESE 7 9 4 5 - - 0.0
30/06:00pm 22.8 23.1 16.1 66 4.1 NE 9 13 5 7 - - 0.0
30/05:30pm 23.7 23.7 16.2 63 4.6 ENE 11 17 6 9 - - 0.0
30/05:00pm 25.0 24.5 15.9 57 5.5 ENE 13 20 7 11 - - 0.0
30/04:30pm 26.0 25.2 16.0 54 6.1 ENE 15 24 8 13 - - 0.0
30/04:00pm 27.0 26.4 16.6 53 6.5 ENE 15 24 8 13 - - 0.0
30/03:30pm 27.4 26.2 16.1 50 7.0 ENE 17 28 9 15 - - 0.0
30/03:00pm 28.2 27.0 17.1 51 7.0 ENE 19 32 10 17 - - 0.0
30/02:30pm 29.1 28.1 16.6 46 7.8 ENE 17 28 9 15 - - 0.0
30/02:00pm 29.4 27.8 16.6 46 8.0 E 20 28 11 15 - - 0.0
30/01:30pm 29.9 28.6 14.8 39 9.2 ENE 15 20 8 11 - - 0.0
30/01:00pm 29.7 28.9 15.0 40 9.0 ENE 13 24 7 13 - - 0.0
30/12:30pm 29.5 29.0 16.0 44 8.4 NE 13 20 7 11 - - 0.0
30/12:00pm 28.9 29.6 17.1 49 7.4 NE 9 17 5 9 - - 0.0
30/11:30am 27.9 27.9 16.2 49 7.2 ENE 11 15 6 8 - - 0.0
30/11:00am 26.2 26.6 17.3 58 5.6 E 11 17 6 9 - - 0.0
30/10:30am 25.0 26.3 18.4 66 4.2 E 9 15 5 8 - - 0.0
30/10:00am 24.1 25.3 17.4 66 4.2 ENE 7 13 4 7 - - 0.0
30/09:30am 22.9 24.0 17.1 70 3.6 ESE 7 13 4 7 - - 0.0
30/09:00am 22.0 22.6 15.8 68 3.7 W 7 9 4 5 - - 0.2
30/08:30am 20.2 21.0 16.4 79 2.3 NW 7 13 4 7 - - 0.2
30/08:00am 17.7 19.7 16.0 90 1.0 CALM 0 0 0 0 - - 0.0
30/07:30am 16.7 17.4 15.7 94 0.6 SSE 6 7 3 4 - - 0.0
30/07:00am 14.6 15.9 14.1 97 0.3 CALM 0 0 0 0 - - 0.0
30/06:30am 13.8 14.9 13.6 99 0.1 CALM 0 0 0 0 - - 0.0
30/06:00am 12.8 13.6 12.5 98 0.2 CALM 0 0 0 0 - - 0.0
30/05:30am 12.7 13.1 12.4 98 0.2 NW 2 9 1 5 - - 0.0
30/05:00am 12.5 12.7 12.0 97 0.3 WNW 2 6 1 3 - - 0.0
30/04:30am 12.6 13.3 12.1 97 0.3 CALM 0 0 0 0 - - 0.0
30/04:00am 12.7 13.3 11.9 95 0.4 CALM 0 2 0 1 - - 0.0
30/03:30am 14.3 14.2 13.8 97 0.3 NW 7 9 4 5 - - 0.0
30/03:00am 14.1 13.6 13.8 98 0.2 NNW 9 11 5 6 - - 0.0
30/02:30am 14.1 14.5 13.6 97 0.3 WNW 4 7 2 4 - - 0.0
30/02:00am 14.0 14.9 12.9 93 0.6 CALM 0 0 0 0 - - 0.0
30/01:30am 15.5 15.8 14.5 94 0.6 NW 6 9 3 5 - - 0.0
30/01:00am 15.5 15.2 14.4 93 0.6 NNW 9 11 5 6 - - 0.0
30/12:30am 15.8 16.6 14.8 94 0.6 WNW 4 7 2 4 - - 0.0
30/12:00am 15.8 17.3 14.7 93 0.6 CALM 0 0 0 0 - - 0.0
 
Date/Time
EST
Temp
°C
App
Temp
°C
Dew
Point
Rel
Hum
%
Delta-T
°C
Wind Press
QNH
hPa
Press
MSL
hPa
Rain
since 9 am
mm
Dir
 
Spd
km/h
Gust
km/h
Spd
kts
Gust
kts
29/11:30pm 15.7 17.2 14.6 93 0.6 CALM 0 0 0 0 - - 0.0
29/11:00pm 16.5 18.1 15.0 91 0.9 CALM 0 0 0 0 - - 0.0
29/10:30pm 16.1 17.6 14.6 91 0.9 CALM 0 0 0 0 - - 0.0
29/10:00pm 16.9 18.2 15.2 90 1.0 SSW 2 6 1 3 - - 0.0
29/09:30pm 16.9 17.2 15.1 89 1.0 SW 7 7 4 4 - - 0.0
29/09:00pm 16.9 17.3 15.2 90 1.0 SW 7 9 4 5 - - 0.0
29/08:30pm 17.4 19.2 15.4 88 1.2 CALM 0 0 0 0 - - 0.0
29/08:00pm 18.4 20.1 15.3 82 1.8 CALM 0 0 0 0 - - 0.0
29/07:30pm 18.9 19.3 15.2 79 2.2 ENE 7 11 4 6 - - 0.0
29/07:00pm 19.3 19.6 15.0 76 2.5 E 7 9 4 5 - - 0.0
29/06:30pm 20.2 20.2 15.2 73 3.0 E 9 13 5 7 - - 0.0
29/06:00pm 21.1 20.9 15.6 71 3.3 E 11 15 6 8 - - 0.0
29/05:30pm 22.5 22.0 15.8 66 4.0 ENE 13 20 7 11 - - 0.0
29/05:00pm 23.7 22.9 16.0 62 4.7 ENE 15 20 8 11 - - 0.0
29/04:30pm 24.9 24.4 15.8 57 5.5 ENE 13 20 7 11 - - 0.0
29/04:00pm 25.5 24.1 15.5 54 6.1 ENE 17 26 9 14 - - 0.0
29/03:30pm 26.2 24.1 14.6 48 7.0 ENE 19 26 10 14 - - 0.0
29/03:00pm 27.2 25.4 13.2 42 8.2 E 15 24 8 13 - - 0.0
29/02:30pm 27.0 24.6 12.6 41 8.4 E 17 26 9 14 - - 0.0
29/02:00pm 27.4 25.7 14.8 46 7.6 E 17 24 9 13 - - 0.0
29/01:30pm 27.5 27.0 14.8 45 7.7 NNE 11 17 6 9 - - 0.0
29/01:00pm 26.7 25.9 14.1 46 7.5 NNE 11 17 6 9 - - 0.0
29/12:30pm 26.5 25.7 13.9 45 7.5 E 11 20 6 11 - - 0.0
29/12:00pm 25.6 26.1 15.6 54 6.1 ENE 7 13 4 7 - - 0.0
29/11:30am 25.3 26.1 16.4 57 5.5 SSW 7 11 4 6 - - 0.0
29/11:00am 23.5 23.4 15.0 59 5.1 S 9 13 5 7 - - 0.0
29/10:30am 22.5 22.5 14.1 59 4.9 E 7 9 4 5 - - 0.0
29/10:00am 21.7 22.0 14.6 64 4.2 E 6 9 3 5 - - 0.0
29/09:30am 20.8 21.1 14.5 67 3.7 WNW 6 13 3 7 - - 0.0
29/09:00am 19.1 17.5 12.8 67 3.5 W 13 19 7 10 - - 0.0
29/08:30am 17.7 16.9 14.0 79 2.1 W 11 15 6 8 - - 0.0
29/08:00am 16.4 16.4 14.1 86 1.3 W 7 11 4 6 - - 0.0
29/07:30am 14.5 14.0 12.7 89 1.0 NW 7 9 4 5 - - 0.0
29/07:00am 12.8 12.7 12.2 96 0.3 NW 4 7 2 4 - - 0.0
29/06:30am 11.5 11.5 11.2 98 0.2 NW 2 7 1 4 - - 0.0
29/06:00am 10.7 9.2 10.4 98 0.2 NNW 9 11 5 6 - - 0.0
29/05:30am 10.6 9.4 10.3 98 0.2 WNW 7 9 4 5 - - 0.0
29/05:00am 10.6 9.4 10.3 98 0.2 NW 7 9 4 5 - - 0.0
29/04:30am 10.6 9.0 10.3 98 0.2 NNW 9 11 5 6 - - 0.0
29/04:00am 10.7 9.5 10.4 98 0.2 NNW 7 9 4 5 - - 0.0
29/03:30am 10.6 10.7 10.3 98 0.2 CALM 0 0 0 0 - - 0.0
29/03:00am 10.9 11.1 10.4 97 0.3 CALM 0 0 0 0 - - 0.0
29/02:30am 11.0 10.1 10.5 97 0.3 W 6 7 3 4 - - 0.0
29/02:00am 11.0 11.2 10.5 97 0.3 CALM 0 0 0 0 - - 0.0
29/01:30am 11.2 11.4 10.4 95 0.4 CALM 0 0 0 0 - - 0.0
29/01:00am 11.6 11.8 10.7 94 0.5 CALM 0 0 0 0 - - 0.0
29/12:30am 12.3 12.6 11.0 92 0.7 CALM 0 0 0 0 - - 0.0
29/12:00am 12.9 13.3 11.3 90 0.8 CALM 0 0 0 0 - - 0.0
 
Date/Time
EST
Temp
°C
App
Temp
°C
Dew
Point
Rel
Hum
%
Delta-T
°C
Wind Press
QNH
hPa
Press
MSL
hPa
Rain
since 9 am
mm
Dir
 
Spd
km/h
Gust
km/h
Spd
kts
Gust
kts
28/11:30pm 13.3 12.5 11.7 90 0.9 NNW 7 9 4 5 - - 0.0
28/11:00pm 13.4 12.8 11.6 89 1.0 WNW 6 7 3 4 - - 0.0
28/10:30pm 13.9 13.2 11.9 88 1.1 WNW 7 9 4 5 - - 0.0
28/10:00pm 14.1 13.6 12.0 87 1.1 WNW 6 7 3 4 - - 0.0
28/09:30pm 14.8 14.1 12.1 84 1.5 WNW 7 7 4 4 - - 0.0
28/09:00pm 14.8 15.4 11.9 83 1.6 CALM 0 0 0 0 - - 0.0
28/08:30pm 14.7 15.4 12.2 85 1.4 CALM 0 0 0 0 - - 0.0
28/08:00pm 14.9 15.8 12.8 87 1.2 CALM 0 0 0 0 - - 0.0
28/07:30pm 15.8 15.6 11.8 77 2.2 NE 4 6 2 3 - - 0.0
28/07:00pm 16.2 15.6 11.8 75 2.4 ENE 6 7 3 4 - - 0.0
28/06:30pm 16.7 15.9 11.6 72 2.8 ENE 7 11 4 6 - - 0.0
28/06:00pm 17.5 16.3 11.5 68 3.3 ENE 9 15 5 8 - - 0.0
28/05:30pm 18.9 16.8 11.2 61 4.2 E 13 19 7 10 - - 0.0
28/05:00pm 20.1 18.1 11.6 58 4.7 ENE 13 20 7 11 - - 0.0

Other Formats:

Comma delimited format used in spreadsheet applications
http://www.bom.gov.au/fwo/IDN60801/IDN60801.95571.axf

JavaScript Object Notation format (JSON) in row-major order
http://www.bom.gov.au/fwo/IDN60801/IDN60801.95571.json